createdAt,value
2023-01-29T09:02:52.199Z,101709.00
2023-01-29T09:05:19.489Z,101711.00
2023-01-29T09:07:46.437Z,101699.00
2023-01-29T09:10:13.479Z,101710.00
2023-01-29T09:12:40.268Z,101706.00
2023-01-29T09:15:07.586Z,101704.00
2023-01-29T09:17:36.257Z,101705.00
2023-01-29T09:20:06.140Z,101700.00
2023-01-29T09:22:33.525Z,101694.00
2023-01-29T09:25:00.292Z,101701.00
2023-01-29T09:27:27.043Z,101704.00
2023-01-29T09:29:53.792Z,101690.00
2023-01-29T09:32:49.825Z,101682.00
2023-01-29T09:35:07.763Z,101684.00
2023-01-29T09:37:34.574Z,101680.00
2023-01-29T09:40:01.358Z,101672.00
2023-01-29T09:42:41.911Z,101677.00
2023-01-29T09:45:09.030Z,101667.00
2023-01-29T09:47:36.722Z,101658.00
2023-01-29T09:50:28.219Z,101672.00
2023-01-29T09:53:18.906Z,101662.00
2023-01-29T09:55:57.915Z,101660.00
2023-01-29T09:58:31.810Z,101655.00
2023-01-29T10:01:00.794Z,101654.00
2023-01-29T10:03:49.315Z,101663.00
2023-01-29T10:06:40.056Z,101649.00
2023-01-29T10:09:37.047Z,101644.00
2023-01-29T10:12:32.207Z,101650.00
2023-01-29T10:15:17.931Z,101634.00
2023-01-29T10:18:39.269Z,101635.00
2023-01-29T10:21:15.331Z,101636.00
2023-01-29T10:23:51.712Z,101634.00
2023-01-29T10:26:24.746Z,101630.00
2023-01-29T10:28:52.368Z,101636.00
2023-01-29T10:31:33.194Z,101613.00
2023-01-29T10:34:03.737Z,101618.00
2023-01-29T10:36:36.200Z,101618.00
2023-01-29T10:39:03.034Z,101616.00
2023-01-29T10:41:53.744Z,101607.00
2023-01-29T10:44:39.471Z,101608.00
2023-01-29T10:47:47.950Z,101603.00
2023-01-29T10:50:23.930Z,101612.00
2023-01-29T10:53:15.501Z,101590.00
2023-01-29T10:56:10.698Z,101571.00
2023-01-29T10:59:11.796Z,101574.00
2023-01-29T11:01:38.620Z,101562.00
2023-01-29T11:04:06.637Z,101549.00
2023-01-29T11:06:35.968Z,101548.00
2023-01-29T11:09:12.875Z,101541.00
2023-01-29T11:11:47.774Z,101554.00
2023-01-29T11:14:46.375Z,101546.00
2023-01-29T11:17:21.628Z,101535.00
2023-01-29T11:19:51.673Z,101532.00
2023-01-29T11:22:20.820Z,101538.00
2023-01-29T11:25:06.863Z,101533.00
2023-01-29T11:27:35.571Z,101530.00
2023-01-29T11:30:02.783Z,101531.00
2023-01-29T11:32:33.718Z,101528.00
2023-01-29T11:35:05.911Z,101513.00
2023-01-29T11:37:32.790Z,101501.00
2023-01-29T11:39:59.637Z,101509.00
2023-01-29T11:42:30.351Z,101496.00
2023-01-29T11:44:57.097Z,101481.00
2023-01-29T11:47:29.937Z,101480.00
2023-01-29T11:49:58.483Z,101481.00
2023-01-29T11:52:33.888Z,101484.00
2023-01-29T11:55:17.369Z,101482.00
2023-01-29T11:57:49.065Z,101475.00
2023-01-29T12:00:26.594Z,101469.00
2023-01-29T12:03:22.081Z,101468.00
2023-01-29T12:05:58.966Z,101456.00
2023-01-29T12:08:29.993Z,101447.00
2023-01-29T12:11:21.374Z,101456.00
2023-01-29T12:13:53.588Z,101440.00
2023-01-29T12:16:25.873Z,101445.00
2023-01-29T12:18:58.681Z,101444.00
2023-01-29T12:21:51.842Z,101454.00
2023-01-29T12:24:27.485Z,101440.00
2023-01-29T12:27:22.578Z,101435.00
2023-01-29T12:30:00.837Z,101428.00
2023-01-29T12:32:30.016Z,101429.00
2023-01-29T12:35:01.087Z,101428.00
2023-01-29T12:37:44.027Z,101430.00
2023-01-29T12:40:21.362Z,101432.00
2023-01-29T12:42:51.535Z,101423.00
2023-01-29T12:45:20.809Z,101413.00
2023-01-29T12:47:50.605Z,101405.00
2023-01-29T12:50:21.614Z,101396.00
2023-01-29T12:52:56.257Z,101383.00
2023-01-29T12:55:48.736Z,101385.00
2023-01-29T12:58:25.379Z,101374.00
2023-01-29T13:00:57.332Z,101367.00
2023-01-29T13:03:47.389Z,101363.00
2023-01-29T13:06:21.101Z,101364.00
2023-01-29T13:08:59.404Z,101373.00
2023-01-29T13:11:41.074Z,101362.00
2023-01-29T13:14:18.364Z,101357.00
2023-01-29T13:16:48.152Z,101361.00
2023-01-29T13:19:26.834Z,101347.00
2023-01-29T13:21:55.589Z,101350.00
2023-01-29T13:24:24.778Z,101346.00
2023-01-29T13:26:51.966Z,101341.00
2023-01-29T13:29:27.700Z,101328.00
2023-01-29T13:31:56.571Z,101344.00
2023-01-29T13:34:45.485Z,101340.00
2023-01-29T13:37:36.562Z,101322.00
2023-01-29T13:40:06.886Z,101318.00
2023-01-29T13:42:47.596Z,101323.00
2023-01-29T13:45:42.141Z,101317.00
2023-01-29T13:48:29.558Z,101313.00
2023-01-29T13:50:57.435Z,101323.00
2023-01-29T13:53:31.999Z,101314.00
2023-01-29T13:56:28.830Z,101305.00
2023-01-29T13:58:57.160Z,101302.00
2023-01-29T14:01:48.980Z,101290.00
2023-01-29T14:04:18.891Z,101297.00
2023-01-29T14:06:56.070Z,101278.00
2023-01-29T14:09:38.279Z,101277.00
2023-01-29T14:12:32.082Z,101286.00
2023-01-29T14:15:06.227Z,101272.00
2023-01-29T14:17:33.085Z,101262.00
2023-01-29T14:20:17.456Z,101274.00
2023-01-29T14:22:44.351Z,101265.00
2023-01-29T14:25:20.957Z,101277.00
2023-01-29T14:27:48.776Z,101270.00
2023-01-29T14:30:18.366Z,101260.00
2023-01-29T14:32:51.504Z,101252.00
2023-01-29T14:35:23.987Z,101252.00
2023-01-29T14:37:53.523Z,101248.00
2023-01-29T14:40:20.436Z,101254.00
2023-01-29T14:43:06.092Z,101240.00
2023-01-29T14:45:41.928Z,101227.00
2023-01-29T14:48:11.762Z,101233.00
2023-01-29T14:50:50.097Z,101228.00
2023-01-29T14:53:22.264Z,101217.00
2023-01-29T14:56:04.234Z,101226.00
2023-01-29T14:58:39.116Z,101218.00
2023-01-29T15:01:15.059Z,101215.00
2023-01-29T15:03:49.720Z,101208.00
2023-01-29T15:06:26.361Z,101201.00
2023-01-29T15:09:16.497Z,101204.00
2023-01-29T15:11:55.337Z,101194.00
2023-01-29T15:14:31.823Z,101181.00
2023-01-29T15:17:18.571Z,101181.00
2023-01-29T15:19:50.385Z,101186.00
2023-01-29T15:22:21.751Z,101177.00
2023-01-29T15:25:13.479Z,101169.00
2023-01-29T15:27:46.598Z,101164.00
2023-01-29T15:30:29.300Z,101152.00
2023-01-29T15:32:56.370Z,101163.00
2023-01-29T15:35:35.288Z,101158.00
2023-01-29T15:38:20.158Z,101143.00
2023-01-29T15:40:59.467Z,101143.00
2023-01-29T15:43:49.754Z,101129.00
2023-01-29T15:46:26.751Z,101129.00
2023-01-29T15:48:54.928Z,101130.00
2023-01-29T15:51:25.126Z,101137.00
2023-01-29T15:53:54.578Z,101130.00
2023-01-29T15:56:28.160Z,101138.00
2023-01-29T15:58:57.326Z,101135.00
2023-01-29T16:01:26.724Z,101136.00
2023-01-29T16:03:54.100Z,101130.00
2023-01-29T16:06:22.159Z,101118.00
2023-01-29T16:08:52.072Z,101116.00
2023-01-29T16:11:19.557Z,101120.00
2023-01-29T16:13:49.083Z,101115.00
2023-01-29T16:16:16.029Z,101122.00
2023-01-29T16:18:58.960Z,101113.00
2023-01-29T16:21:36.063Z,101106.00
2023-01-29T16:24:09.610Z,101115.00
2023-01-29T16:26:39.356Z,101110.00
2023-01-29T16:29:16.276Z,101107.00
2023-01-29T16:31:44.447Z,101100.00
2023-01-29T16:34:33.196Z,101108.00
2023-01-29T16:37:01.703Z,101093.00
2023-01-29T16:39:35.646Z,101099.00
2023-01-29T16:42:19.827Z,101088.00
2023-01-29T16:44:54.164Z,101084.00
2023-01-29T16:47:34.598Z,101070.00
2023-01-29T16:50:19.963Z,101072.00
2023-01-29T16:52:58.080Z,101075.00
2023-01-29T16:55:25.632Z,101053.00
2023-01-29T16:57:56.177Z,101047.00
2023-01-29T17:00:31.251Z,101054.00
2023-01-29T17:03:05.682Z,101043.00
2023-01-29T17:05:35.593Z,101038.00
2023-01-29T17:08:03.171Z,101032.00
2023-01-29T17:10:30.871Z,101038.00
2023-01-29T17:13:09.804Z,101034.00
2023-01-29T17:15:46.746Z,101026.00
2023-01-29T17:18:24.655Z,101012.00
2023-01-29T17:20:53.224Z,101016.00
2023-01-29T17:23:20.603Z,101006.00
2023-01-29T17:25:48.061Z,101004.00
2023-01-29T17:28:16.998Z,100996.00
2023-01-29T17:30:50.668Z,100989.00
2023-01-29T17:33:23.500Z,100984.00
2023-01-29T17:35:50.355Z,100994.00
2023-01-29T17:38:26.044Z,100971.00
2023-01-29T17:41:20.720Z,100978.00
2023-01-29T17:43:47.626Z,100955.00
2023-01-29T17:46:17.199Z,100956.00
2023-01-29T17:48:45.021Z,100949.00
2023-01-29T17:51:16.310Z,100937.00
2023-01-29T17:53:46.268Z,100948.00
2023-01-29T17:56:18.815Z,100932.00
2023-01-29T17:58:45.721Z,100929.00
2023-01-29T18:01:12.512Z,100935.00
2023-01-29T18:03:40.177Z,100939.00
2023-01-29T18:06:09.021Z,100930.00
2023-01-29T18:08:37.230Z,100929.00
2023-01-29T18:11:04.226Z,100914.00
2023-01-29T18:13:30.978Z,100924.00
2023-01-29T18:15:57.761Z,100903.00
2023-01-29T18:18:24.660Z,100909.00
2023-01-29T18:20:51.426Z,100887.00
2023-01-29T18:23:18.256Z,100898.00
2023-01-29T18:25:45.218Z,100889.00
2023-01-29T18:28:17.658Z,100880.00
2023-01-29T18:30:47.201Z,100883.00
2023-01-29T18:33:15.395Z,100874.00
2023-01-29T18:35:44.577Z,100865.00
2023-01-29T18:38:11.700Z,100850.00
2023-01-29T18:40:38.647Z,100873.00
2023-01-29T18:43:05.416Z,100850.00
2023-01-29T18:45:32.295Z,100844.00
2023-01-29T18:47:59.131Z,100836.00
2023-01-29T18:50:26.450Z,100829.00
2023-01-29T18:52:54.120Z,100833.00
2023-01-29T18:55:21.291Z,100819.00
2023-01-29T18:58:27.974Z,100815.00
2023-01-29T19:00:34.821Z,100817.00
2023-01-29T19:03:02.212Z,100808.00
2023-01-29T19:05:31.193Z,100809.00
2023-01-29T19:07:57.952Z,100793.00
2023-01-29T19:10:24.767Z,100788.00
2023-01-29T19:12:51.518Z,100802.00
2023-01-29T19:15:20.676Z,100783.00
2023-01-29T19:17:47.457Z,100776.00
2023-01-29T19:20:14.490Z,100777.00
2023-01-29T19:22:41.674Z,100765.00
2023-01-29T19:25:09.036Z,100768.00
2023-01-29T19:27:35.954Z,100778.00
2023-01-29T19:30:05.756Z,100766.00
2023-01-29T19:32:32.672Z,100763.00
2023-01-29T19:37:41.711Z,100750.00
2023-01-29T19:40:09.492Z,100753.00
2023-01-29T19:42:37.653Z,100748.00
2023-01-29T19:45:05.560Z,100730.00
2023-01-29T19:47:33.677Z,100734.00
2023-01-29T19:50:00.639Z,100732.00
2023-01-29T19:52:52.283Z,100724.00
